Latest Weather Observations for Frankston

IDV60801

Issued at 7:12 pm EDT Thursday 17 October 2019 (issued every 10 minutes, with the page automatically refreshed every 10 minutes)

About weather observations | Map of weather stations | Latest weather observations for VIC | Other Formats
Station Details ID: 086371 Name: FRANKSTON AWS Lat: -38.15 Lon: 145.12 Height: 6.0 m
Data from the previous 72 hours. | See also: Recent months at Frankston
Date/Time
EDT
Temp
°C
App
Temp
°C
Dew
Point
°C
Rel
Hum
%
Delta-T
°C
Wind Press
QNH
hPa
Press
MSL
hPa
Rain since
9am
mm
Dir  Spd
km/h
Gust
km/h
Spd
kts
Gust
kts
17/07:00pm - - - - - WSW 48 56 26 30 - - -
17/06:30pm - - - - - W 43 50 23 27 - - -
17/06:00pm - - - - - WSW 46 57 25 31 - - -
17/05:30pm - - - - - W 35 43 19 23 - - -
17/05:00pm - - - - - WSW 33 41 18 22 - - -
17/04:30pm - - - - - W 33 44 18 24 - - -
17/04:20pm - - - - - W 28 39 15 21 - - -
17/04:00pm - - - - - WNW 37 48 20 26 - - -
17/03:30pm - - - - - WNW 44 52 24 28 - - -
17/03:00pm - - - - - WNW 44 54 24 29 - - -
17/02:30pm - - - - - WNW 46 59 25 32 - - -
17/02:00pm - - - - - WNW 46 56 25 30 - - -
17/01:30pm - - - - - WNW 50 61 27 33 - - -
17/01:00pm - - - - - WNW 50 61 27 33 - - -
17/12:30pm - - - - - WNW 46 57 25 31 - - -
17/12:00pm - - - - - WNW 39 50 21 27 - - -
17/11:30am - - - - - WNW 43 52 23 28 - - -
17/11:00am - - - - - WNW 41 52 22 28 - - -
17/10:30am - - - - - WNW 39 48 21 26 - - -
17/10:00am - - - - - WNW 46 56 25 30 - - -
17/09:30am - - - - - WNW 43 52 23 28 - - -
17/09:00am - - - - - WNW 43 54 23 29 - - -
17/08:30am - - - - - WNW 44 56 24 30 - - -
17/08:00am - - - - - WNW 41 52 22 28 - - -
17/07:30am - - - - - WNW 41 52 22 28 - - -
17/07:00am - - - - - WNW 41 52 22 28 - - -
17/06:30am - - - - - WNW 43 52 23 28 - - -
17/06:00am - - - - - WNW 43 52 23 28 - - -
17/05:30am - - - - - WNW 41 52 22 28 - - -
17/05:00am - - - - - WNW 41 50 22 27 - - -
17/04:30am - - - - - W 32 43 17 23 - - -
17/04:00am - - - - - NW 28 43 15 23 - - -
17/03:30am - - - - - N 22 28 12 15 - - -
17/03:00am - - - - - NNE 9 17 5 9 - - -
17/02:30am - - - - - ENE 7 13 4 7 - - -
17/02:00am - - - - - CALM 0 0 0 0 - - -
17/01:30am - - - - - CALM 0 0 0 0 - - -
17/01:00am - - - - - WSW 7 11 4 6 - - -
17/12:30am - - - - - SSW 2 6 1 3 - - -
17/12:00am - - - - - CALM 0 0 0 0 - - -
 
Date/Time
EDT
Temp
°C
App
Temp
°C
Dew
Point
°C
Rel
Hum
%
Delta-T
°C
Wind Press
QNH
hPa
Press
MSL
hPa
Rain since
9am
mm
Dir  Spd
km/h
Gust
km/h
Spd
kts
Gust
kts
16/11:30pm - - - - - CALM 0 0 0 0 - - -
16/11:00pm - - - - - CALM 0 0 0 0 - - -
16/10:30pm - - - - - CALM 0 0 0 0 - - -
16/10:00pm - - - - - SE 2 6 1 3 - - -
16/09:30pm - - - - - SSE 7 9 4 5 - - -
16/09:00pm - - - - - SSE 11 13 6 7 - - -
16/08:30pm - - - - - SE 9 11 5 6 - - -
16/08:00pm - - - - - S 6 13 3 7 - - -
16/07:30pm - - - - - WSW 11 11 6 6 - - -
16/07:00pm - - - - - WSW 11 13 6 7 - - -
16/06:30pm - - - - - WSW 11 15 6 8 - - -
16/06:00pm - - - - - W 19 24 10 13 - - -
16/05:30pm - - - - - WSW 15 17 8 9 - - -
16/05:00pm - - - - - WNW 11 19 6 10 - - -
16/04:30pm - - - - - NW 13 17 7 9 - - -
16/04:00pm - - - - - W 19 24 10 13 - - -
16/03:30pm - - - - - WNW 20 26 11 14 - - -
16/03:17pm - - - - - W 26 39 14 21 - - -
16/03:00pm - - - - - N 15 20 8 11 - - -
16/02:30pm - - - - - N 20 26 11 14 - - -
16/02:00pm - - - - - N 17 19 9 10 - - -
16/01:30pm - - - - - N 17 19 9 10 - - -
16/01:00pm - - - - - N 17 20 9 11 - - -
16/12:30pm - - - - - N 17 19 9 10 - - -
16/12:00pm - - - - - N 13 15 7 8 - - -
16/11:30am - - - - - N 9 11 5 6 - - -
16/11:00am - - - - - NNE 7 9 4 5 - - -
16/10:30am - - - - - NNE 9 11 5 6 - - -
16/10:00am - - - - - NNE 11 13 6 7 - - -
16/09:30am - - - - - ENE 9 15 5 8 - - -
16/09:00am - - - - - E 9 15 5 8 - - -
16/08:30am - - - - - SE 9 15 5 8 - - -
16/08:00am - - - - - ESE 9 13 5 7 - - -
16/07:30am - - - - - SE 7 9 4 5 - - -
16/07:00am - - - - - SSE 6 7 3 4 - - -
16/06:30am - - - - - SE 7 11 4 6 - - -
16/06:00am - - - - - SE 6 9 3 5 - - -
16/05:30am - - - - - E 7 11 4 6 - - -
16/05:00am - - - - - E 9 11 5 6 - - -
16/04:30am - - - - - ESE 9 13 5 7 - - -
16/04:00am - - - - - S 7 11 4 6 - - -
16/03:30am - - - - - SE 7 11 4 6 - - -
16/03:00am - - - - - SE 6 9 3 5 - - -
16/02:30am - - - - - ENE 9 15 5 8 - - -
16/02:00am - - - - - ESE 4 9 2 5 - - -
16/01:30am - - - - - E 4 7 2 4 - - -
16/01:00am - - - - - ESE 6 9 3 5 - - -
16/12:30am - - - - - S 6 11 3 6 - - -
16/12:00am - - - - - SSE 4 11 2 6 - - -
 
Date/Time
EDT
Temp
°C
App
Temp
°C
Dew
Point
°C
Rel
Hum
%
Delta-T
°C
Wind Press
QNH
hPa
Press
MSL
hPa
Rain since
9am
mm
Dir  Spd
km/h
Gust
km/h
Spd
kts
Gust
kts
15/11:30pm - - - - - SSE 4 9 2 5 - - -
15/11:00pm - - - - - SE 7 13 4 7 - - -
15/10:30pm - - - - - SSE 9 17 5 9 - - -
15/10:00pm - - - - - SSE 9 13 5 7 - - -
15/09:30pm - - - - - S 11 19 6 10 - - -
15/09:00pm - - - - - SE 9 17 5 9 - - -
15/08:30pm - - - - - ESE 4 9 2 5 - - -
15/08:00pm - - - - - SE 11 15 6 8 - - -
15/07:30pm - - - - - ESE 11 17 6 9 - - -
15/07:00pm - - - - - SE 11 17 6 9 - - -
15/06:30pm - - - - - WSW 19 22 10 12 - - -
15/06:00pm - - - - - WSW 15 19 8 10 - - -
15/05:30pm - - - - - WSW 13 19 7 10 - - -
15/05:00pm - - - - - W 20 24 11 13 - - -
15/04:30pm - - - - - W 19 20 10 11 - - -
15/04:00pm - - - - - W 20 24 11 13 - - -
15/03:30pm - - - - - W 19 24 10 13 - - -
15/03:00pm - - - - - W 28 32 15 17 - - -
15/02:30pm - - - - - WSW 26 28 14 15 - - -
15/02:00pm - - - - - W 22 26 12 14 - - -
15/01:30pm - - - - - W 17 20 9 11 - - -
15/01:00pm - - - - - W 19 22 10 12 - - -
15/12:30pm - - - - - W 19 22 10 12 - - -
15/12:00pm - - - - - W 19 20 10 11 - - -
15/11:30am - - - - - W 17 20 9 11 - - -
15/11:00am - - - - - W 19 20 10 11 - - -
15/10:30am - - - - - W 15 19 8 10 - - -
15/10:00am - - - - - W 15 19 8 10 - - -
15/09:30am - - - - - WSW 13 17 7 9 - - -
15/09:00am - - - - - SW 9 15 5 8 - - -
15/08:30am - - - - - SSW 11 13 6 7 - - -
15/08:00am - - - - - SSW 9 13 5 7 - - -
15/07:30am - - - - - S 7 9 4 5 - - -
15/07:00am - - - - - SSW 7 9 4 5 - - -
15/06:30am - - - - - SW 9 11 5 6 - - -
15/06:00am - - - - - SW 11 13 6 7 - - -
15/05:30am - - - - - SSW 9 13 5 7 - - -
15/05:00am - - - - - SW 9 13 5 7 - - -
15/04:30am - - - - - SSW 9 11 5 6 - - -
15/04:00am - - - - - SSW 9 15 5 8 - - -
15/03:30am - - - - - SW 9 13 5 7 - - -
15/03:00am - - - - - SW 13 17 7 9 - - -
15/02:30am - - - - - SW 13 19 7 10 - - -
15/02:00am - - - - - SW 13 15 7 8 - - -
15/01:30am - - - - - WSW 13 15 7 8 - - -
15/01:00am - - - - - SW 13 17 7 9 - - -
15/12:30am - - - - - WSW 19 28 10 15 - - -
15/12:00am - - - - - CALM 0 0 0 0 - - -
 
Date/Time
EDT
Temp
°C
App
Temp
°C
Dew
Point
°C
Rel
Hum
%
Delta-T
°C
Wind Press
QNH
hPa
Press
MSL
hPa
Rain since
9am
mm
Dir  Spd
km/h
Gust
km/h
Spd
kts
Gust
kts
14/11:30pm - - - - - SSW 9 11 5 6 - - -
14/11:00pm - - - - - SW 9 13 5 7 - - -
14/10:30pm - - - - - SW 9 13 5 7 - - -
14/10:00pm - - - - - SSW 7 11 4 6 - - -
14/09:30pm - - - - - SSW 11 15 6 8 - - -
14/09:00pm - - - - - S 9 15 5 8 - - -
14/08:30pm - - - - - SSW 11 19 6 10 - - -
14/08:00pm - - - - - SSW 11 17 6 9 - - -
14/07:30pm - - - - - SSW 13 19 7 10 - - -

Other formats

Comma delimited format used in spreadsheet applications
http://www.bom.gov.au/fwo/IDV60801/IDV60801.94871.axf

JavaScript Object Notation format (JSON) in row-major order
http://www.bom.gov.au/fwo/IDV60801/IDV60801.94871.json

Data quality

Most of these data are generated automatically and are frequently updated. Quality checks on data are not normally performed. It is possible for incorrect values to appear. Refer to information at About Latest Weather Observations and please check the disclaimer before using these data.